Fort Bragg, CA (95437)

12:42 AM PST on December 04, 2016 (GMT -0800)
East Laurel Street | | Change Station

Elev 85 ft 39.45 °N, 123.81 °W | Updated 5 minutes ago

Clear
Clear
41.4 °F
Feels Like 41 °F
N
0.0
Wind Variable Wind from North
Gusts 1.2 mph

Today
High -- | Low -- °F
--% Chance of Precip.
Yesterday
High -- | Low -- °F
Precip. -- in
Pressure 30.23 in
Visibility 9.0 miles
Clouds Clear
Windchill 41 °F
Dew Point 40 °F
Humidity 94%
Rainfall 0.00 in
Snow Depth Not available.
7:19 AM 4:51 PM
Waxing Crescent, 21% visible
METAR KUKI 040756Z AUTO 00000KT 9SM CLR 05/04 A3023 RMK AO2 SLP235 T00500039 401890017
Pressure 30.23 in
Visibility 9.0 miles
Clouds Clear
Windchill 41 °F
Dew Point 40 °F
Humidity 94%
Rainfall 0.00 in
Snow Depth Not available.
7:19 AM 4:51 PM
Waxing Crescent, 21% visible
METAR KUKI 040756Z AUTO 00000KT 9SM CLR 05/04 A3023 RMK AO2 SLP235 T00500039 401890017

10-Day Weather Forecast

Almanac

Astronomy

Dec. 04, 2016 Rise Set
Actual Time
Civil Twilight
Nautical Twilight
Astronomical Twilight
Moon
Length of Visible Light
Length of Day
Tomorrow will be .
, % of the Moon is Illuminated

Today's Extremes

State Highs State Lows

Community

WunderPhotos

Upload Photos

1,955,587 photos uploaded!

WunderBlog® & News

Nearby

Air Quality

  Air Quality AQ Index Pollutant
Not available.

Snow Depth

Station Depth Elevation

Earthquake Activity

City Distance Mag. Time & Date
Minimum magnitude displayed is 2.5.

Coastal Water Temperatures

Place Temperature

Stations

Nearby Weather Stations

Station Location Temp. Windchill Dew Point Humidity Wind Precip. Elev Updated Type
                   

Watches & Warnings

There are currently no watches in effect.